sensor_id;sensor_type;location;lat;lon;timestamp;P1;durP1;ratioP1;P2;durP2;ratioP2
77359;SDS011;66426;51.454;7.266;2023-04-03T00:00:00;8.52;;;3.85;;
77359;SDS011;66426;51.454;7.266;2023-04-03T00:01:01;7.28;;;4.00;;
77359;SDS011;66426;51.454;7.266;2023-04-03T00:02:03;6.00;;;3.78;;
77359;SDS011;66426;51.454;7.266;2023-04-03T00:03:04;5.80;;;3.70;;
77359;SDS011;66426;51.454;7.266;2023-04-03T00:04:05;8.73;;;3.90;;
77359;SDS011;66426;51.454;7.266;2023-04-03T00:05:06;8.10;;;3.63;;
77359;SDS011;66426;51.454;7.266;2023-04-03T00:06:08;8.18;;;4.18;;
77359;SDS011;66426;51.454;7.266;2023-04-03T00:07:10;9.15;;;3.90;;
77359;SDS011;66426;51.454;7.266;2023-04-03T00:08:12;7.88;;;4.20;;
77359;SDS011;66426;51.454;7.266;2023-04-03T00:09:13;8.05;;;3.50;;
77359;SDS011;66426;51.454;7.266;2023-04-03T00:10:14;7.25;;;3.78;;
77359;SDS011;66426;51.454;7.266;2023-04-03T00:11:16;7.47;;;3.72;;
77359;SDS011;66426;51.454;7.266;2023-04-03T00:12:17;7.78;;;3.85;;
77359;SDS011;66426;51.454;7.266;2023-04-03T00:13:18;7.43;;;3.83;;
77359;SDS011;66426;51.454;7.266;2023-04-03T00:14:20;8.77;;;4.05;;
77359;SDS011;66426;51.454;7.266;2023-04-03T00:15:22;7.30;;;3.70;;
77359;SDS011;66426;51.454;7.266;2023-04-03T00:16:23;5.97;;;3.92;;
77359;SDS011;66426;51.454;7.266;2023-04-03T00:17:24;6.85;;;3.60;;
77359;SDS011;66426;51.454;7.266;2023-04-03T00:18:25;6.95;;;3.80;;
77359;SDS011;66426;51.454;7.266;2023-04-03T00:19:26;5.65;;;3.70;;
77359;SDS011;66426;51.454;7.266;2023-04-03T00:20:27;7.88;;;4.18;;
77359;SDS011;66426;51.454;7.266;2023-04-03T00:21:28;6.40;;;3.60;;
77359;SDS011;66426;51.454;7.266;2023-04-03T00:22:29;7.18;;;4.18;;
77359;SDS011;66426;51.454;7.266;2023-04-03T00:23:30;6.38;;;3.70;;
77359;SDS011;66426;51.454;7.266;2023-04-03T00:24:31;6.00;;;3.60;;
77359;SDS011;66426;51.454;7.266;2023-04-03T00:25:32;6.45;;;3.60;;
77359;SDS011;66426;51.454;7.266;2023-04-03T00:26:34;9.50;;;3.55;;
77359;SDS011;66426;51.454;7.266;2023-04-03T00:27:35;7.40;;;3.65;;
77359;SDS011;66426;51.454;7.266;2023-04-03T00:28:36;6.55;;;3.58;;
77359;SDS011;66426;51.454;7.266;2023-04-03T00:29:37;6.53;;;3.80;;
77359;SDS011;66426;51.454;7.266;2023-04-03T00:30:39;6.05;;;3.72;;
77359;SDS011;66426;51.454;7.266;2023-04-03T00:31:40;7.28;;;3.17;;
77359;SDS011;66426;51.454;7.266;2023-04-03T00:32:41;7.47;;;3.65;;
77359;SDS011;66426;51.454;7.266;2023-04-03T00:33:42;9.38;;;3.60;;
77359;SDS011;66426;51.454;7.266;2023-04-03T00:34:43;9.57;;;4.03;;
77359;SDS011;66426;51.454;7.266;2023-04-03T00:35:44;5.93;;;3.88;;
77359;SDS011;66426;51.454;7.266;2023-04-03T00:36:45;9.05;;;3.97;;
77359;SDS011;66426;51.454;7.266;2023-04-03T00:37:46;7.78;;;4.20;;
77359;SDS011;66426;51.454;7.266;2023-04-03T00:38:47;7.18;;;3.72;;
77359;SDS011;66426;51.454;7.266;2023-04-03T00:39:48;7.82;;;3.95;;
77359;SDS011;66426;51.454;7.266;2023-04-03T00:40:49;6.78;;;3.67;;
77359;SDS011;66426;51.454;7.266;2023-04-03T00:41:50;7.20;;;3.85;;
77359;SDS011;66426;51.454;7.266;2023-04-03T00:42:51;6.85;;;3.72;;
77359;SDS011;66426;51.454;7.266;2023-04-03T00:43:56;8.48;;;4.10;;
77359;SDS011;66426;51.454;7.266;2023-04-03T00:46:30;8.55;;;4.28;;
77359;SDS011;66426;51.454;7.266;2023-04-03T00:47:31;8.18;;;4.05;;
77359;SDS011;66426;51.454;7.266;2023-04-03T00:48:33;9.25;;;4.47;;
77359;SDS011;66426;51.454;7.266;2023-04-03T00:49:37;9.23;;;4.10;;
77359;SDS011;66426;51.454;7.266;2023-04-03T00:50:40;11.38;;;4.15;;
77359;SDS011;66426;51.454;7.266;2023-04-03T00:51:43;10.35;;;4.25;;
77359;SDS011;66426;51.454;7.266;2023-04-03T00:52:44;7.75;;;4.63;;
77359;SDS011;66426;51.454;7.266;2023-04-03T00:53:47;9.20;;;4.07;;
77359;SDS011;66426;51.454;7.266;2023-04-03T00:54:51;8.65;;;4.03;;
77359;SDS011;66426;51.454;7.266;2023-04-03T00:55:57;8.57;;;4.18;;
77359;SDS011;66426;51.454;7.266;2023-04-03T00:56:59;9.70;;;4.10;;
77359;SDS011;66426;51.454;7.266;2023-04-03T00:58:01;8.05;;;4.32;;
77359;SDS011;66426;51.454;7.266;2023-04-03T00:59:04;7.32;;;4.10;;
77359;SDS011;66426;51.454;7.266;2023-04-03T01:00:09;7.80;;;3.95;;
77359;SDS011;66426;51.454;7.266;2023-04-03T01:01:14;7.55;;;3.38;;
77359;SDS011;66426;51.454;7.266;2023-04-03T01:03:20;6.93;;;3.50;;
77359;SDS011;66426;51.454;7.266;2023-04-03T01:04:26;8.95;;;4.35;;
77359;SDS011;66426;51.454;7.266;2023-04-03T01:05:28;8.35;;;3.60;;
77359;SDS011;66426;51.454;7.266;2023-04-03T01:06:30;7.65;;;3.67;;
77359;SDS011;66426;51.454;7.266;2023-04-03T01:07:34;8.40;;;3.92;;
77359;SDS011;66426;51.454;7.266;2023-04-03T01:08:37;7.47;;;4.03;;
77359;SDS011;66426;51.454;7.266;2023-04-03T01:09:39;7.93;;;3.95;;
77359;SDS011;66426;51.454;7.266;2023-04-03T01:10:40;6.20;;;3.75;;
77359;SDS011;66426;51.454;7.266;2023-04-03T01:11:41;8.18;;;4.05;;
77359;SDS011;66426;51.454;7.266;2023-04-03T01:12:43;9.63;;;4.03;;
77359;SDS011;66426;51.454;7.266;2023-04-03T01:13:45;9.23;;;4.55;;
77359;SDS011;66426;51.454;7.266;2023-04-03T01:14:46;9.50;;;4.95;;
77359;SDS011;66426;51.454;7.266;2023-04-03T01:15:50;7.97;;;3.90;;
77359;SDS011;66426;51.454;7.266;2023-04-03T01:16:52;6.93;;;3.95;;
77359;SDS011;66426;51.454;7.266;2023-04-03T01:17:55;7.43;;;3.90;;
77359;SDS011;66426;51.454;7.266;2023-04-03T01:18:56;8.82;;;4.30;;
77359;SDS011;66426;51.454;7.266;2023-04-03T01:20:10;5.97;;;3.60;;
77359;SDS011;66426;51.454;7.266;2023-04-03T01:23:18;6.95;;;3.83;;
77359;SDS011;66426;51.454;7.266;2023-04-03T01:24:32;7.20;;;3.78;;
77359;SDS011;66426;51.454;7.266;2023-04-03T01:25:35;9.55;;;4.65;;
77359;SDS011;66426;51.454;7.266;2023-04-03T01:26:37;8.05;;;4.53;;
77359;SDS011;66426;51.454;7.266;2023-04-03T01:27:39;8.20;;;4.68;;
77359;SDS011;66426;51.454;7.266;2023-04-03T01:28:40;7.03;;;4.10;;
77359;SDS011;66426;51.454;7.266;2023-04-03T01:29:41;7.25;;;4.20;;
77359;SDS011;66426;51.454;7.266;2023-04-03T01:30:45;7.28;;;3.80;;
77359;SDS011;66426;51.454;7.266;2023-04-03T01:31:52;7.20;;;4.10;;
77359;SDS011;66426;51.454;7.266;2023-04-03T01:32:54;7.07;;;4.07;;
77359;SDS011;66426;51.454;7.266;2023-04-03T01:33:55;8.02;;;4.20;;
77359;SDS011;66426;51.454;7.266;2023-04-03T01:34:56;7.28;;;3.70;;
77359;SDS011;66426;51.454;7.266;2023-04-03T01:35:57;7.03;;;3.55;;
77359;SDS011;66426;51.454;7.266;2023-04-03T01:36:58;8.13;;;4.13;;
77359;SDS011;66426;51.454;7.266;2023-04-03T01:37:59;9.63;;;3.88;;
77359;SDS011;66426;51.454;7.266;2023-04-03T01:39:00;7.55;;;3.85;;
77359;SDS011;66426;51.454;7.266;2023-04-03T01:40:01;9.68;;;3.95;;
77359;SDS011;66426;51.454;7.266;2023-04-03T01:41:02;8.15;;;3.75;;
77359;SDS011;66426;51.454;7.266;2023-04-03T01:42:03;7.75;;;4.18;;
77359;SDS011;66426;51.454;7.266;2023-04-03T01:43:04;9.23;;;3.67;;
77359;SDS011;66426;51.454;7.266;2023-04-03T01:44:05;6.95;;;3.90;;
77359;SDS011;66426;51.454;7.266;2023-04-03T01:45:07;6.35;;;3.70;;
77359;SDS011;66426;51.454;7.266;2023-04-03T01:46:08;6.78;;;3.80;;
77359;SDS011;66426;51.454;7.266;2023-04-03T01:47:11;8.98;;;3.80;;
77359;SDS011;66426;51.454;7.266;2023-04-03T01:48:12;8.02;;;3.45;;
77359;SDS011;66426;51.454;7.266;2023-04-03T01:49:13;6.95;;;3.25;;
77359;SDS011;66426;51.454;7.266;2023-04-03T01:50:14;8.63;;;3.60;;
77359;SDS011;66426;51.454;7.266;2023-04-03T01:51:15;6.30;;;3.60;;
77359;SDS011;66426;51.454;7.266;2023-04-03T01:52:16;7.20;;;3.72;;
77359;SDS011;66426;51.454;7.266;2023-04-03T01:53:17;7.85;;;3.60;;
77359;SDS011;66426;51.454;7.266;2023-04-03T01:54:18;7.68;;;3.95;;
77359;SDS011;66426;51.454;7.266;2023-04-03T01:55:19;6.78;;;3.70;;
77359;SDS011;66426;51.454;7.266;2023-04-03T01:56:20;8.95;;;4.07;;
77359;SDS011;66426;51.454;7.266;2023-04-03T01:57:21;6.85;;;3.47;;
77359;SDS011;66426;51.454;7.266;2023-04-03T01:58:22;6.38;;;3.47;;
77359;SDS011;66426;51.454;7.266;2023-04-03T01:59:23;6.85;;;3.13;;
77359;SDS011;66426;51.454;7.266;2023-04-03T02:00:24;8.40;;;3.55;;
77359;SDS011;66426;51.454;7.266;2023-04-03T02:01:25;6.03;;;3.30;;
77359;SDS011;66426;51.454;7.266;2023-04-03T02:02:27;6.85;;;3.30;;
77359;SDS011;66426;51.454;7.266;2023-04-03T02:03:28;8.90;;;3.63;;
77359;SDS011;66426;51.454;7.266;2023-04-03T02:04:29;6.32;;;3.47;;
77359;SDS011;66426;51.454;7.266;2023-04-03T02:05:30;7.97;;;3.47;;
77359;SDS011;66426;51.454;7.266;2023-04-03T02:06:31;5.70;;;3.38;;
77359;SDS011;66426;51.454;7.266;2023-04-03T02:07:32;7.50;;;3.20;;
77359;SDS011;66426;51.454;7.266;2023-04-03T02:08:33;4.90;;;2.97;;
77359;SDS011;66426;51.454;7.266;2023-04-03T02:09:34;5.40;;;3.08;;
77359;SDS011;66426;51.454;7.266;2023-04-03T02:10:35;5.45;;;3.08;;
77359;SDS011;66426;51.454;7.266;2023-04-03T02:11:36;6.03;;;3.10;;
77359;SDS011;66426;51.454;7.266;2023-04-03T02:12:37;6.05;;;2.75;;
77359;SDS011;66426;51.454;7.266;2023-04-03T02:13:37;5.25;;;3.10;;
77359;SDS011;66426;51.454;7.266;2023-04-03T02:14:38;6.80;;;3.20;;
77359;SDS011;66426;51.454;7.266;2023-04-03T02:15:39;6.00;;;3.17;;
77359;SDS011;66426;51.454;7.266;2023-04-03T02:16:40;5.70;;;2.88;;
77359;SDS011;66426;51.454;7.266;2023-04-03T02:17:43;5.53;;;2.83;;
77359;SDS011;66426;51.454;7.266;2023-04-03T02:18:44;6.93;;;2.92;;
77359;SDS011;66426;51.454;7.266;2023-04-03T02:19:44;5.10;;;2.90;;
77359;SDS011;66426;51.454;7.266;2023-04-03T02:20:46;7.93;;;3.00;;
77359;SDS011;66426;51.454;7.266;2023-04-03T02:21:47;6.00;;;3.03;;
77359;SDS011;66426;51.454;7.266;2023-04-03T02:22:48;6.90;;;3.05;;
77359;SDS011;66426;51.454;7.266;2023-04-03T02:23:49;5.00;;;2.83;;
77359;SDS011;66426;51.454;7.266;2023-04-03T02:24:50;5.28;;;2.60;;
77359;SDS011;66426;51.454;7.266;2023-04-03T02:25:52;8.88;;;3.00;;
77359;SDS011;66426;51.454;7.266;2023-04-03T02:26:53;6.55;;;3.10;;
77359;SDS011;66426;51.454;7.266;2023-04-03T02:27:54;4.82;;;2.75;;
77359;SDS011;66426;51.454;7.266;2023-04-03T02:28:55;4.07;;;2.40;;
77359;SDS011;66426;51.454;7.266;2023-04-03T02:29:56;5.13;;;2.90;;
77359;SDS011;66426;51.454;7.266;2023-04-03T02:30:56;5.72;;;2.92;;
77359;SDS011;66426;51.454;7.266;2023-04-03T02:31:57;5.82;;;2.80;;
77359;SDS011;66426;51.454;7.266;2023-04-03T02:33:00;6.95;;;2.95;;
77359;SDS011;66426;51.454;7.266;2023-04-03T02:34:00;5.60;;;2.63;;
77359;SDS011;66426;51.454;7.266;2023-04-03T02:35:01;4.18;;;2.30;;
77359;SDS011;66426;51.454;7.266;2023-04-03T02:36:03;6.20;;;2.60;;
77359;SDS011;66426;51.454;7.266;2023-04-03T02:37:06;5.55;;;2.50;;
77359;SDS011;66426;51.454;7.266;2023-04-03T02:38:06;4.95;;;2.83;;
77359;SDS011;66426;51.454;7.266;2023-04-03T02:39:08;5.75;;;2.63;;
77359;SDS011;66426;51.454;7.266;2023-04-03T02:40:09;4.57;;;2.53;;
77359;SDS011;66426;51.454;7.266;2023-04-03T02:41:12;4.78;;;2.70;;
77359;SDS011;66426;51.454;7.266;2023-04-03T02:42:13;3.70;;;2.35;;
77359;SDS011;66426;51.454;7.266;2023-04-03T02:43:14;4.82;;;2.50;;
77359;SDS011;66426;51.454;7.266;2023-04-03T02:44:15;5.18;;;2.67;;
77359;SDS011;66426;51.454;7.266;2023-04-03T02:45:16;6.60;;;2.60;;
77359;SDS011;66426;51.454;7.266;2023-04-03T02:46:17;3.92;;;2.33;;
77359;SDS011;66426;51.454;7.266;2023-04-03T02:47:18;4.75;;;2.67;;
77359;SDS011;66426;51.454;7.266;2023-04-03T02:48:20;4.63;;;2.50;;
77359;SDS011;66426;51.454;7.266;2023-04-03T02:49:21;5.97;;;2.70;;
77359;SDS011;66426;51.454;7.266;2023-04-03T02:50:22;5.70;;;2.47;;
77359;SDS011;66426;51.454;7.266;2023-04-03T02:51:23;5.25;;;2.33;;
77359;SDS011;66426;51.454;7.266;2023-04-03T02:52:24;4.38;;;2.50;;
77359;SDS011;66426;51.454;7.266;2023-04-03T02:53:25;3.78;;;2.20;;
77359;SDS011;66426;51.454;7.266;2023-04-03T02:54:26;6.03;;;2.40;;
77359;SDS011;66426;51.454;7.266;2023-04-03T02:55:31;5.18;;;2.40;;
77359;SDS011;66426;51.454;7.266;2023-04-03T02:56:31;5.60;;;2.28;;
77359;SDS011;66426;51.454;7.266;2023-04-03T02:57:32;5.40;;;2.20;;
77359;SDS011;66426;51.454;7.266;2023-04-03T02:58:33;8.90;;;2.38;;
77359;SDS011;66426;51.454;7.266;2023-04-03T02:59:34;4.97;;;2.45;;
77359;SDS011;66426;51.454;7.266;2023-04-03T03:00:35;5.38;;;2.20;;
77359;SDS011;66426;51.454;7.266;2023-04-03T03:01:36;4.88;;;2.30;;
77359;SDS011;66426;51.454;7.266;2023-04-03T03:02:37;5.55;;;2.05;;
77359;SDS011;66426;51.454;7.266;2023-04-03T03:03:39;5.15;;;2.65;;
77359;SDS011;66426;51.454;7.266;2023-04-03T03:04:40;3.70;;;2.13;;
77359;SDS011;66426;51.454;7.266;2023-04-03T03:05:41;5.53;;;2.20;;
77359;SDS011;66426;51.454;7.266;2023-04-03T03:06:42;3.53;;;2.08;;
77359;SDS011;66426;51.454;7.266;2023-04-03T03:07:43;5.90;;;2.10;;
77359;SDS011;66426;51.454;7.266;2023-04-03T03:08:44;3.67;;;2.20;;
77359;SDS011;66426;51.454;7.266;2023-04-03T03:09:45;4.90;;;2.47;;
77359;SDS011;66426;51.454;7.266;2023-04-03T03:10:46;3.88;;;2.13;;
77359;SDS011;66426;51.454;7.266;2023-04-03T03:11:47;3.75;;;2.28;;
77359;SDS011;66426;51.454;7.266;2023-04-03T03:12:48;5.43;;;2.45;;
77359;SDS011;66426;51.454;7.266;2023-04-03T03:13:49;5.13;;;1.83;;
77359;SDS011;66426;51.454;7.266;2023-04-03T03:14:50;3.45;;;1.90;;
77359;SDS011;66426;51.454;7.266;2023-04-03T03:15:51;4.97;;;1.95;;
77359;SDS011;66426;51.454;7.266;2023-04-03T03:16:52;5.82;;;1.92;;
77359;SDS011;66426;51.454;7.266;2023-04-03T03:17:53;3.15;;;1.77;;
77359;SDS011;66426;51.454;7.266;2023-04-03T03:18:55;3.53;;;2.20;;
77359;SDS011;66426;51.454;7.266;2023-04-03T03:19:56;3.83;;;1.92;;
77359;SDS011;66426;51.454;7.266;2023-04-03T03:20:57;5.18;;;2.10;;
77359;SDS011;66426;51.454;7.266;2023-04-03T03:21:59;3.58;;;1.88;;
77359;SDS011;66426;51.454;7.266;2023-04-03T03:23:00;4.80;;;1.92;;
77359;SDS011;66426;51.454;7.266;2023-04-03T03:24:01;4.75;;;1.85;;
77359;SDS011;66426;51.454;7.266;2023-04-03T03:25:02;3.70;;;1.90;;
77359;SDS011;66426;51.454;7.266;2023-04-03T03:26:05;6.13;;;2.10;;
77359;SDS011;66426;51.454;7.266;2023-04-03T03:27:08;4.15;;;2.13;;
77359;SDS011;66426;51.454;7.266;2023-04-03T03:28:09;3.67;;;1.80;;
77359;SDS011;66426;51.454;7.266;2023-04-03T03:29:10;2.83;;;1.70;;
77359;SDS011;66426;51.454;7.266;2023-04-03T03:30:11;2.75;;;1.77;;
77359;SDS011;66426;51.454;7.266;2023-04-03T03:31:12;6.47;;;2.10;;
77359;SDS011;66426;51.454;7.266;2023-04-03T03:32:13;3.17;;;1.85;;
77359;SDS011;66426;51.454;7.266;2023-04-03T03:33:14;4.07;;;1.88;;
77359;SDS011;66426;51.454;7.266;2023-04-03T03:34:17;8.48;;;2.20;;
77359;SDS011;66426;51.454;7.266;2023-04-03T03:35:18;5.30;;;1.70;;
77359;SDS011;66426;51.454;7.266;2023-04-03T03:36:19;5.55;;;2.30;;
77359;SDS011;66426;51.454;7.266;2023-04-03T03:37:20;3.33;;;1.75;;
77359;SDS011;66426;51.454;7.266;2023-04-03T03:38:21;4.13;;;1.90;;
77359;SDS011;66426;51.454;7.266;2023-04-03T03:39:23;3.63;;;1.73;;
77359;SDS011;66426;51.454;7.266;2023-04-03T03:40:24;4.03;;;1.77;;
77359;SDS011;66426;51.454;7.266;2023-04-03T03:41:25;5.25;;;1.80;;
77359;SDS011;66426;51.454;7.266;2023-04-03T03:42:26;3.22;;;1.70;;
77359;SDS011;66426;51.454;7.266;2023-04-03T03:43:27;5.13;;;1.88;;
77359;SDS011;66426;51.454;7.266;2023-04-03T03:44:28;2.78;;;1.60;;
77359;SDS011;66426;51.454;7.266;2023-04-03T03:45:29;2.70;;;1.63;;
77359;SDS011;66426;51.454;7.266;2023-04-03T03:46:31;2.67;;;1.60;;
77359;SDS011;66426;51.454;7.266;2023-04-03T03:47:32;4.13;;;1.50;;
77359;SDS011;66426;51.454;7.266;2023-04-03T03:48:33;1.80;;;1.50;;
77359;SDS011;66426;51.454;7.266;2023-04-03T03:49:35;4.97;;;1.60;;
77359;SDS011;66426;51.454;7.266;2023-04-03T03:50:36;5.90;;;2.08;;
77359;SDS011;66426;51.454;7.266;2023-04-03T03:51:37;2.60;;;1.30;;
77359;SDS011;66426;51.454;7.266;2023-04-03T03:52:38;2.15;;;1.58;;
77359;SDS011;66426;51.454;7.266;2023-04-03T03:53:39;4.35;;;1.90;;
77359;SDS011;66426;51.454;7.266;2023-04-03T03:54:40;3.38;;;1.50;;
77359;SDS011;66426;51.454;7.266;2023-04-03T03:55:41;5.25;;;2.08;;
77359;SDS011;66426;51.454;7.266;2023-04-03T03:56:42;2.83;;;1.40;;
77359;SDS011;66426;51.454;7.266;2023-04-03T03:57:43;5.35;;;1.80;;
77359;SDS011;66426;51.454;7.266;2023-04-03T03:58:44;2.25;;;1.52;;
77359;SDS011;66426;51.454;7.266;2023-04-03T03:59:45;3.05;;;1.48;;
77359;SDS011;66426;51.454;7.266;2023-04-03T04:00:46;3.38;;;1.60;;
77359;SDS011;66426;51.454;7.266;2023-04-03T04:01:47;3.70;;;2.13;;
77359;SDS011;66426;51.454;7.266;2023-04-03T04:02:48;2.83;;;1.60;;
77359;SDS011;66426;51.454;7.266;2023-04-03T04:03:49;4.32;;;1.50;;
77359;SDS011;66426;51.454;7.266;2023-04-03T04:04:51;4.25;;;1.65;;
77359;SDS011;66426;51.454;7.266;2023-04-03T04:05:52;5.65;;;1.60;;
77359;SDS011;66426;51.454;7.266;2023-04-03T04:06:53;2.90;;;1.45;;
77359;SDS011;66426;51.454;7.266;2023-04-03T04:07:54;4.30;;;1.70;;
77359;SDS011;66426;51.454;7.266;2023-04-03T04:08:55;5.78;;;2.22;;
77359;SDS011;66426;51.454;7.266;2023-04-03T04:09:56;4.07;;;1.70;;
77359;SDS011;66426;51.454;7.266;2023-04-03T04:10:57;2.88;;;1.50;;
77359;SDS011;66426;51.454;7.266;2023-04-03T04:11:57;2.83;;;1.50;;
77359;SDS011;66426;51.454;7.266;2023-04-03T04:12:58;4.25;;;1.30;;
77359;SDS011;66426;51.454;7.266;2023-04-03T04:14:00;3.97;;;1.40;;
77359;SDS011;66426;51.454;7.266;2023-04-03T04:15:01;2.97;;;1.50;;
77359;SDS011;66426;51.454;7.266;2023-04-03T04:16:01;4.18;;;1.80;;
77359;SDS011;66426;51.454;7.266;2023-04-03T04:17:02;2.78;;;1.35;;
77359;SDS011;66426;51.454;7.266;2023-04-03T04:18:03;3.90;;;1.60;;
77359;SDS011;66426;51.454;7.266;2023-04-03T04:19:05;4.10;;;1.90;;
77359;SDS011;66426;51.454;7.266;2023-04-03T04:20:07;4.57;;;1.70;;
77359;SDS011;66426;51.454;7.266;2023-04-03T04:21:09;3.30;;;1.40;;
77359;SDS011;66426;51.454;7.266;2023-04-03T04:22:09;3.33;;;1.42;;
77359;SDS011;66426;51.454;7.266;2023-04-03T04:23:10;3.30;;;1.60;;
77359;SDS011;66426;51.454;7.266;2023-04-03T04:24:11;3.05;;;1.40;;
77359;SDS011;66426;51.454;7.266;2023-04-03T04:25:12;3.72;;;1.15;;
77359;SDS011;66426;51.454;7.266;2023-04-03T04:26:13;5.72;;;1.70;;
77359;SDS011;66426;51.454;7.266;2023-04-03T04:27:14;4.32;;;1.38;;
77359;SDS011;66426;51.454;7.266;2023-04-03T04:28:16;4.20;;;1.67;;
77359;SDS011;66426;51.454;7.266;2023-04-03T04:29:17;5.03;;;1.70;;
77359;SDS011;66426;51.454;7.266;2023-04-03T04:30:18;3.80;;;1.50;;
77359;SDS011;66426;51.454;7.266;2023-04-03T04:31:19;3.20;;;1.60;;
77359;SDS011;66426;51.454;7.266;2023-04-03T04:32:20;3.88;;;1.40;;
77359;SDS011;66426;51.454;7.266;2023-04-03T04:33:21;3.85;;;1.75;;
77359;SDS011;66426;51.454;7.266;2023-04-03T04:34:22;4.28;;;1.80;;
77359;SDS011;66426;51.454;7.266;2023-04-03T04:35:24;7.03;;;2.10;;
77359;SDS011;66426;51.454;7.266;2023-04-03T04:36:25;4.78;;;1.95;;
77359;SDS011;66426;51.454;7.266;2023-04-03T04:37:26;4.28;;;1.42;;
77359;SDS011;66426;51.454;7.266;2023-04-03T04:38:27;2.60;;;1.63;;
77359;SDS011;66426;51.454;7.266;2023-04-03T04:39:28;3.13;;;1.73;;
77359;SDS011;66426;51.454;7.266;2023-04-03T04:40:29;4.45;;;1.50;;
77359;SDS011;66426;51.454;7.266;2023-04-03T04:41:30;4.63;;;1.70;;
77359;SDS011;66426;51.454;7.266;2023-04-03T04:42:31;3.47;;;1.67;;
77359;SDS011;66426;51.454;7.266;2023-04-03T04:43:32;3.63;;;1.80;;
77359;SDS011;66426;51.454;7.266;2023-04-03T04:44:33;2.80;;;1.60;;
77359;SDS011;66426;51.454;7.266;2023-04-03T04:45:34;4.50;;;1.67;;
77359;SDS011;66426;51.454;7.266;2023-04-03T04:46:35;3.72;;;1.27;;
77359;SDS011;66426;51.454;7.266;2023-04-03T04:47:36;2.53;;;1.60;;
77359;SDS011;66426;51.454;7.266;2023-04-03T04:48:37;4.00;;;1.65;;
77359;SDS011;66426;51.454;7.266;2023-04-03T04:49:38;5.93;;;1.67;;
77359;SDS011;66426;51.454;7.266;2023-04-03T04:50:40;5.18;;;1.75;;
77359;SDS011;66426;51.454;7.266;2023-04-03T04:51:41;3.05;;;1.63;;
77359;SDS011;66426;51.454;7.266;2023-04-03T04:52:42;3.05;;;1.40;;
77359;SDS011;66426;51.454;7.266;2023-04-03T04:53:43;4.07;;;1.45;;
77359;SDS011;66426;51.454;7.266;2023-04-03T04:54:44;3.50;;;1.60;;
77359;SDS011;66426;51.454;7.266;2023-04-03T04:55:45;3.75;;;1.30;;
77359;SDS011;66426;51.454;7.266;2023-04-03T04:56:46;6.38;;;1.52;;
77359;SDS011;66426;51.454;7.266;2023-04-03T04:57:47;6.40;;;1.60;;
77359;SDS011;66426;51.454;7.266;2023-04-03T04:58:48;6.95;;;1.67;;
77359;SDS011;66426;51.454;7.266;2023-04-03T04:59:49;3.80;;;1.65;;
77359;SDS011;66426;51.454;7.266;2023-04-03T05:00:50;3.75;;;1.45;;
77359;SDS011;66426;51.454;7.266;2023-04-03T05:01:58;5.93;;;1.70;;
77359;SDS011;66426;51.454;7.266;2023-04-03T05:02:59;8.25;;;1.80;;
77359;SDS011;66426;51.454;7.266;2023-04-03T05:04:00;6.00;;;1.77;;
77359;SDS011;66426;51.454;7.266;2023-04-03T05:05:00;5.22;;;1.90;;
77359;SDS011;66426;51.454;7.266;2023-04-03T05:06:03;3.83;;;1.40;;
77359;SDS011;66426;51.454;7.266;2023-04-03T05:07:05;5.18;;;1.90;;
77359;SDS011;66426;51.454;7.266;2023-04-03T05:08:06;4.35;;;1.98;;
77359;SDS011;66426;51.454;7.266;2023-04-03T05:09:08;2.13;;;1.40;;
77359;SDS011;66426;51.454;7.266;2023-04-03T05:10:10;3.65;;;1.90;;
77359;SDS011;66426;51.454;7.266;2023-04-03T05:11:11;2.95;;;1.45;;
77359;SDS011;66426;51.454;7.266;2023-04-03T05:12:12;5.90;;;2.00;;
77359;SDS011;66426;51.454;7.266;2023-04-03T05:13:13;4.20;;;1.77;;
77359;SDS011;66426;51.454;7.266;2023-04-03T05:14:15;4.07;;;1.75;;
77359;SDS011;66426;51.454;7.266;2023-04-03T05:15:16;3.20;;;1.70;;
77359;SDS011;66426;51.454;7.266;2023-04-03T05:16:17;3.70;;;1.45;;
77359;SDS011;66426;51.454;7.266;2023-04-03T05:17:18;4.00;;;1.63;;
77359;SDS011;66426;51.454;7.266;2023-04-03T05:18:18;3.70;;;1.80;;
77359;SDS011;66426;51.454;7.266;2023-04-03T05:19:19;3.97;;;1.70;;
77359;SDS011;66426;51.454;7.266;2023-04-03T05:20:21;4.97;;;1.73;;
77359;SDS011;66426;51.454;7.266;2023-04-03T05:21:23;5.07;;;1.60;;
77359;SDS011;66426;51.454;7.266;2023-04-03T05:22:26;3.50;;;1.50;;
77359;SDS011;66426;51.454;7.266;2023-04-03T05:23:27;4.90;;;1.80;;
77359;SDS011;66426;51.454;7.266;2023-04-03T05:24:28;2.85;;;1.80;;
77359;SDS011;66426;51.454;7.266;2023-04-03T05:25:29;3.13;;;1.48;;
77359;SDS011;66426;51.454;7.266;2023-04-03T05:26:30;4.70;;;1.80;;
77359;SDS011;66426;51.454;7.266;2023-04-03T05:27:31;3.30;;;1.70;;
77359;SDS011;66426;51.454;7.266;2023-04-03T05:28:32;3.45;;;1.83;;
77359;SDS011;66426;51.454;7.266;2023-04-03T05:29:33;5.43;;;1.55;;
77359;SDS011;66426;51.454;7.266;2023-04-03T05:30:34;2.92;;;1.65;;
77359;SDS011;66426;51.454;7.266;2023-04-03T05:31:35;3.67;;;1.70;;
77359;SDS011;66426;51.454;7.266;2023-04-03T05:32:36;6.70;;;1.77;;
77359;SDS011;66426;51.454;7.266;2023-04-03T05:33:37;4.32;;;1.83;;
77359;SDS011;66426;51.454;7.266;2023-04-03T05:34:38;4.47;;;1.60;;
77359;SDS011;66426;51.454;7.266;2023-04-03T05:35:39;3.05;;;1.70;;
77359;SDS011;66426;51.454;7.266;2023-04-03T05:36:43;3.58;;;1.70;;
77359;SDS011;66426;51.454;7.266;2023-04-03T05:37:44;4.80;;;2.17;;
77359;SDS011;66426;51.454;7.266;2023-04-03T05:38:45;4.47;;;1.70;;
77359;SDS011;66426;51.454;7.266;2023-04-03T05:39:46;3.97;;;1.83;;
77359;SDS011;66426;51.454;7.266;2023-04-03T05:40:46;2.63;;;1.63;;
77359;SDS011;66426;51.454;7.266;2023-04-03T05:41:47;7.72;;;2.03;;
77359;SDS011;66426;51.454;7.266;2023-04-03T05:42:48;3.63;;;1.48;;
77359;SDS011;66426;51.454;7.266;2023-04-03T05:43:49;4.32;;;1.70;;
77359;SDS011;66426;51.454;7.266;2023-04-03T05:44:50;3.80;;;2.00;;
77359;SDS011;66426;51.454;7.266;2023-04-03T05:45:51;3.95;;;1.70;;
77359;SDS011;66426;51.454;7.266;2023-04-03T05:46:52;4.95;;;1.80;;
77359;SDS011;66426;51.454;7.266;2023-04-03T05:47:53;7.25;;;1.83;;
77359;SDS011;66426;51.454;7.266;2023-04-03T05:48:54;6.88;;;2.10;;
77359;SDS011;66426;51.454;7.266;2023-04-03T05:49:55;3.00;;;1.85;;
77359;SDS011;66426;51.454;7.266;2023-04-03T05:50:56;6.85;;;1.80;;
77359;SDS011;66426;51.454;7.266;2023-04-03T05:51:59;4.95;;;1.85;;
77359;SDS011;66426;51.454;7.266;2023-04-03T05:53:01;9.07;;;2.08;;
77359;SDS011;66426;51.454;7.266;2023-04-03T05:54:06;5.82;;;2.08;;
77359;SDS011;66426;51.454;7.266;2023-04-03T05:55:11;5.80;;;2.05;;
77359;SDS011;66426;51.454;7.266;2023-04-03T05:56:12;6.22;;;2.05;;
77359;SDS011;66426;51.454;7.266;2023-04-03T05:57:14;7.53;;;2.40;;
77359;SDS011;66426;51.454;7.266;2023-04-03T05:58:16;5.57;;;1.83;;
77359;SDS011;66426;51.454;7.266;2023-04-03T05:59:17;5.47;;;1.92;;
77359;SDS011;66426;51.454;7.266;2023-04-03T06:00:18;6.80;;;2.10;;
77359;SDS011;66426;51.454;7.266;2023-04-03T06:01:19;8.30;;;2.67;;
77359;SDS011;66426;51.454;7.266;2023-04-03T06:02:22;3.42;;;1.73;;
77359;SDS011;66426;51.454;7.266;2023-04-03T06:03:24;4.05;;;1.77;;
77359;SDS011;66426;51.454;7.266;2023-04-03T06:04:25;6.03;;;1.92;;
77359;SDS011;66426;51.454;7.266;2023-04-03T06:05:26;5.65;;;1.67;;
77359;SDS011;66426;51.454;7.266;2023-04-03T06:06:41;5.43;;;1.90;;
77359;SDS011;66426;51.454;7.266;2023-04-03T06:07:45;5.50;;;2.15;;
77359;SDS011;66426;51.454;7.266;2023-04-03T06:08:46;6.75;;;2.08;;
77359;SDS011;66426;51.454;7.266;2023-04-03T06:09:47;6.63;;;2.15;;
77359;SDS011;66426;51.454;7.266;2023-04-03T06:10:48;7.93;;;2.00;;
77359;SDS011;66426;51.454;7.266;2023-04-03T06:11:49;6.05;;;2.00;;
77359;SDS011;66426;51.454;7.266;2023-04-03T06:12:50;5.72;;;1.77;;
77359;SDS011;66426;51.454;7.266;2023-04-03T06:13:51;4.60;;;1.63;;
77359;SDS011;66426;51.454;7.266;2023-04-03T06:14:52;6.03;;;2.03;;